Time;durP1;ratioP1;P1;durP2;ratioP2;P2;SDS_P1;SDS_P2;PMS_P1;PMS_P2;Temp;Humidity;BMP_temperature;BMP_pressure;BME280_temperature;BME280_humidity;BME280_pressure;Samples;Min_cycle;Max_cycle;Signal;HPM_P1;HPM_P2
2024/04/20 00:01:53;;;;;;;;;;;;;;;-2.71;100.00;99728.00;5534829;25;19927;-69
2024/04/20 00:04:18;;;;;;;;;;;;;;;-2.73;100.00;99732.50;5506353;26;19939;-69
2024/04/20 00:06:47;;;;;;;;;;;;;;;-2.71;100.00;99734.06;5510708;25;19926;-68
2024/04/20 00:09:14;;;;;;;;;;;;;;;-2.67;100.00;99734.69;5538500;25;19939;-69
2024/04/20 00:11:40;;;;;;;;;;;;;;;-2.74;100.00;99743.88;5509380;26;19963;-69
2024/04/20 00:14:05;;;;;;;;;;;;;;;-2.71;100.00;99741.03;5555576;25;19938;-70
2024/04/20 00:16:30;;;;;;;;;;;;;;;-2.71;100.00;99747.09;5514759;26;19936;-69
2024/04/20 00:18:56;;;;;;;;;;;;;;;-2.67;100.00;99752.94;5543228;25;19943;-67
2024/04/20 00:21:21;;;;;;;;;;;;;;;-2.63;100.00;99757.00;5546007;25;20281;-67
2024/04/20 00:23:46;;;;;;;;;;;;;;;-2.61;100.00;99755.94;5525012;25;19990;-68
2024/04/20 00:26:13;;;;;;;;;;;;;;;-2.63;100.00;99763.03;5499847;25;19927;-68
2024/04/20 00:28:38;;;;;;;;;;;;;;;-2.64;100.00;99770.97;5552010;25;19939;-69
2024/04/20 00:31:03;;;;;;;;;;;;;;;-2.67;100.00;99768.56;5544744;25;20610;-68
2024/04/20 00:33:29;;;;;;;;;;;;;;;-2.70;100.00;99771.38;5534094;25;19927;-67
2024/04/20 00:35:55;;;;;;;;;;;;;;;-2.75;100.00;99778.69;5533383;25;19994;-69
2024/04/20 00:38:20;;;;;;;;;;;;;;;-2.73;100.00;99790.66;5552369;25;19939;-69
2024/04/20 00:40:55;;;;;;;;;;;;;;;-2.71;100.00;99782.75;5545007;25;19927;-68
2024/04/20 00:43:20;;;;;;;;;;;;;;;-2.75;100.00;99781.28;5526984;25;19959;-70
2024/04/20 00:45:45;;;;;;;;;;;;;;;-2.78;100.00;99778.88;5547491;25;19927;-69
2024/04/20 00:48:11;;;;;;;;;;;;;;;-2.78;100.00;99786.69;5543193;25;19996;-68
2024/04/20 00:50:37;;;;;;;;;;;;;;;-2.82;100.00;99789.50;5540134;25;19935;-67
2024/04/20 00:53:03;;;;;;;;;;;;;;;-2.82;100.00;99791.28;5541781;25;20244;-69
2024/04/20 00:55:29;;;;;;;;;;;;;;;-2.81;100.00;99796.41;5549324;25;19935;-68
2024/04/20 00:57:56;;;;;;;;;;;;;;;-2.78;100.00;99797.13;5511125;25;19928;-67
2024/04/20 01:00:22;;;;;;;;;;;;;;;-2.78;100.00;99797.13;5512546;25;19998;-67
2024/04/20 01:02:47;;;;;;;;;;;;;;;-2.78;100.00;99804.94;5515194;25;20374;-67
2024/04/20 01:05:17;;;;;;;;;;;;;;;-2.81;100.00;99806.81;5543666;25;19995;-69
2024/04/20 01:07:42;;;;;;;;;;;;;;;-2.88;100.00;99810.78;5541034;25;19927;-66
2024/04/20 01:10:08;;;;;;;;;;;;;;;-2.88;100.00;99810.78;5516966;25;19929;-68
2024/04/20 01:12:33;;;;;;;;;;;;;;;-2.87;100.00;99809.84;5506921;25;19939;-70
2024/04/20 01:14:59;;;;;;;;;;;;;;;-2.82;100.00;99809.53;5500007;26;19951;-70
2024/04/20 01:17:24;;;;;;;;;;;;;;;-2.81;100.00;99814.63;5513192;25;19934;-67
2024/04/20 01:19:49;;;;;;;;;;;;;;;-2.76;100.00;99816.94;5479172;25;19934;-68
2024/04/20 01:22:15;;;;;;;;;;;;;;;-2.80;100.00;99820.69;5541567;25;19928;-68
2024/04/20 01:24:41;;;;;;;;;;;;;;;-2.86;100.00;99824.53;5525111;25;20282;-67
2024/04/20 01:27:06;;;;;;;;;;;;;;;-2.81;100.00;99832.03;5514718;25;19926;-68
2024/04/20 01:29:32;;;;;;;;;;;;;;;-2.85;100.00;99834.00;5475882;25;20350;-68
2024/04/20 01:31:57;;;;;;;;;;;;;;;-2.85;100.00;99831.41;5534875;25;19972;-70
2024/04/20 01:34:22;;;;;;;;;;;;;;;-2.86;100.00;99834.94;5532990;25;19935;-69
2024/04/20 01:36:48;;;;;;;;;;;;;;;-2.88;100.00;99836.81;5536782;25;20290;-69
2024/04/20 01:39:14;;;;;;;;;;;;;;;-2.94;100.00;99837.19;5547765;25;19927;-67
2024/04/20 01:41:39;;;;;;;;;;;;;;;-2.88;100.00;99849.03;5543513;25;19927;-69
2024/04/20 01:44:04;;;;;;;;;;;;;;;-2.84;100.00;99845.28;5485780;25;19963;-70
2024/04/20 01:46:30;;;;;;;;;;;;;;;-2.81;100.00;99848.50;5503198;25;19934;-67
2024/04/20 01:48:55;;;;;;;;;;;;;;;-2.83;100.00;99854.75;5550620;25;19935;-69
2024/04/20 01:51:20;;;;;;;;;;;;;;;-2.82;100.00;99852.06;5542819;25;19935;-69
2024/04/20 01:53:46;;;;;;;;;;;;;;;-2.88;100.00;99859.44;5552599;25;19936;-70
2024/04/20 01:56:11;;;;;;;;;;;;;;;-2.92;100.00;99863.16;5517632;26;20359;-66
2024/04/20 01:58:36;;;;;;;;;;;;;;;-2.90;100.00;99861.28;5532622;25;19927;-69
2024/04/20 02:01:03;;;;;;;;;;;;;;;-2.91;100.00;99868.25;5509912;25;19928;-67
2024/04/20 02:03:28;;;;;;;;;;;;;;;-2.92;100.00;99871.81;5512908;26;20396;-68
2024/04/20 02:05:53;;;;;;;;;;;;;;;-2.87;100.00;99871.53;5558765;25;19927;-68
2024/04/20 02:08:19;;;;;;;;;;;;;;;-2.90;100.00;99877.75;5490556;25;19935;-67
2024/04/20 02:10:44;;;;;;;;;;;;;;;-2.85;100.00;99878.31;5544229;25;19931;-68
2024/04/20 02:13:09;;;;;;;;;;;;;;;-2.87;100.00;99874.97;5552909;25;19995;-67
2024/04/20 02:15:35;;;;;;;;;;;;;;;-2.78;100.00;99883.13;5514244;25;19931;-69
2024/04/20 02:18:00;;;;;;;;;;;;;;;-2.73;100.00;99891.47;5509885;25;19935;-69
2024/04/20 02:20:26;;;;;;;;;;;;;;;-2.81;100.00;99900.63;5561641;25;19939;-66
2024/04/20 02:22:51;;;;;;;;;;;;;;;-2.85;100.00;99904.38;5547009;25;19927;-69
2024/04/20 02:25:17;;;;;;;;;;;;;;;-2.77;100.00;99903.03;5540206;25;19933;-67
2024/04/20 02:27:43;;;;;;;;;;;;;;;-2.74;100.00;99906.28;5545281;25;19934;-68
2024/04/20 02:30:09;;;;;;;;;;;;;;;-2.72;100.00;99903.56;5510468;25;19935;-69
2024/04/20 02:32:34;;;;;;;;;;;;;;;-2.70;100.00;99914.72;5555894;25;19934;-66
2024/04/20 02:35:01;;;;;;;;;;;;;;;-2.71;100.00;99913.06;5544758;25;19934;-68
2024/04/20 02:37:27;;;;;;;;;;;;;;;-2.69;100.00;99926.81;5535528;25;20382;-68
2024/04/20 02:39:53;;;;;;;;;;;;;;;-2.71;100.00;99926.09;5493873;26;19927;-68
2024/04/20 02:42:18;;;;;;;;;;;;;;;-2.70;100.00;99925.97;5551440;25;20286;-68
2024/04/20 02:44:44;;;;;;;;;;;;;;;-2.67;100.00;99919.72;5547476;25;19954;-71
2024/04/20 02:47:10;;;;;;;;;;;;;;;-2.64;100.00;99922.13;5510132;26;19927;-68
2024/04/20 02:49:35;;;;;;;;;;;;;;;-2.65;100.00;99923.06;5543229;25;19933;-67
2024/04/20 02:52:00;;;;;;;;;;;;;;;-2.66;100.00;99932.66;5550691;25;19927;-67
2024/04/20 02:54:26;;;;;;;;;;;;;;;-2.68;100.00;99941.53;5544698;25;19927;-66
2024/04/20 02:56:51;;;;;;;;;;;;;;;-2.64;100.00;99938.63;5534218;25;19933;-70
2024/04/20 02:59:17;;;;;;;;;;;;;;;-2.55;100.00;99952.84;5513410;25;19927;-69
2024/04/20 03:01:42;;;;;;;;;;;;;;;-2.46;100.00;99952.25;5507103;25;19934;-67
2024/04/20 03:04:07;;;;;;;;;;;;;;;-2.36;100.00;99957.69;5514862;25;20056;-68
2024/04/20 03:06:32;;;;;;;;;;;;;;;-2.29;100.00;99958.97;5561024;25;19938;-69
2024/04/20 03:08:58;;;;;;;;;;;;;;;-2.31;99.70;99961.69;5513687;25;19942;-69
2024/04/20 03:11:23;;;;;;;;;;;;;;;-2.26;100.00;99967.44;5547530;25;19935;-68
2024/04/20 03:13:55;;;;;;;;;;;;;;;-2.27;99.59;99972.75;5550140;25;19935;-68
2024/04/20 03:16:20;;;;;;;;;;;;;;;-2.23;99.93;99985.47;5539622;25;20374;-66
2024/04/20 03:18:46;;;;;;;;;;;;;;;-2.28;100.00;99979.75;5513342;26;19931;-69
2024/04/20 03:21:11;;;;;;;;;;;;;;;-2.28;100.00;99979.75;5528695;25;20389;-68
2024/04/20 03:23:37;;;;;;;;;;;;;;;-2.26;100.00;99985.69;5560043;25;19962;-69
2024/04/20 03:26:03;;;;;;;;;;;;;;;-2.26;100.00;99984.84;5537981;25;19959;-68
2024/04/20 03:28:28;;;;;;;;;;;;;;;-2.31;100.00;100000.81;5553542;25;19927;-69
2024/04/20 03:30:54;;;;;;;;;;;;;;;-2.24;100.00;99996.84;5549382;25;19934;-68
2024/04/20 03:33:21;;;;;;;;;;;;;;;-2.15;100.00;100015.44;5485444;25;19994;-67
2024/04/20 03:35:47;;;;;;;;;;;;;;;-2.15;100.00;100013.66;5544155;25;19933;-67
2024/04/20 03:38:13;;;;;;;;;;;;;;;-2.16;100.00;100016.38;5540263;25;20306;-70
2024/04/20 03:40:38;;;;;;;;;;;;;;;-2.13;100.00;100016.19;5535737;25;19934;-69
2024/04/20 03:43:04;;;;;;;;;;;;;;;-2.16;100.00;100024.19;5554090;25;19955;-68
2024/04/20 03:45:30;;;;;;;;;;;;;;;-2.12;100.00;100033.50;5516297;25;19927;-68
2024/04/20 03:47:55;;;;;;;;;;;;;;;-2.15;100.00;100044.13;5559012;25;19933;-67
2024/04/20 03:50:23;;;;;;;;;;;;;;;-2.08;100.00;100043.63;5512523;25;19927;-67
2024/04/20 03:52:48;;;;;;;;;;;;;;;-1.99;100.00;100044.81;5533330;25;19976;-69
2024/04/20 03:55:14;;;;;;;;;;;;;;;-2.06;100.00;100056.56;5536918;25;19935;-69
2024/04/20 03:57:39;;;;;;;;;;;;;;;-2.01;100.00;100062.34;5548895;25;19927;-68
2024/04/20 04:00:07;;;;;;;;;;;;;;;-1.99;100.00;100066.53;5553074;25;19927;-68
2024/04/20 04:02:32;;;;;;;;;;;;;;;-1.94;100.00;100061.84;5532585;25;19942;-69
2024/04/20 04:04:58;;;;;;;;;;;;;;;-1.93;100.00;100065.28;5482406;26;19927;-68
2024/04/20 04:07:23;;;;;;;;;;;;;;;-1.91;100.00;100066.88;5534926;25;19995;-67
2024/04/20 04:09:48;;;;;;;;;;;;;;;-1.80;100.00;100076.59;5533945;25;20279;-66
2024/04/20 04:12:14;;;;;;;;;;;;;;;-1.75;100.00;100074.50;5505228;26;19931;-68
2024/04/20 04:14:40;;;;;;;;;;;;;;;-1.72;100.00;100073.50;5514510;25;19935;-67
2024/04/20 04:17:05;;;;;;;;;;;;;;;-1.69;100.00;100076.75;5542350;25;19927;-69
2024/04/20 04:19:31;;;;;;;;;;;;;;;-1.64;100.00;100076.44;5542467;25;19927;-65
2024/04/20 04:21:58;;;;;;;;;;;;;;;-1.66;100.00;100089.59;5559785;25;19927;-67
2024/04/20 04:24:24;;;;;;;;;;;;;;;-1.74;99.23;100102.28;5541573;25;20271;-70
2024/04/20 04:26:49;;;;;;;;;;;;;;;-1.84;99.52;100103.00;5545680;25;19935;-69
2024/04/20 04:29:14;;;;;;;;;;;;;;;-1.92;100.00;100103.50;5494940;25;20407;-68
2024/04/20 04:31:40;;;;;;;;;;;;;;;-1.93;100.00;100104.44;5529618;25;20339;-68
2024/04/20 04:34:06;;;;;;;;;;;;;;;-2.00;100.00;100108.38;5503727;26;19931;-68
2024/04/20 04:36:31;;;;;;;;;;;;;;;-2.11;100.00;100118.66;5511377;25;19995;-70
2024/04/20 04:38:57;;;;;;;;;;;;;;;-2.11;100.00;100118.66;5518818;25;20377;-67
2024/04/20 04:41:24;;;;;;;;;;;;;;;-2.02;100.00;100123.31;5507249;25;19934;-70
2024/04/20 04:43:49;;;;;;;;;;;;;;;-2.02;100.00;100134.59;5508407;25;19934;-67
2024/04/20 04:46:15;;;;;;;;;;;;;;;-1.94;100.00;100136.69;5550213;25;19931;-68
2024/04/20 04:48:40;;;;;;;;;;;;;;;-1.89;100.00;100137.22;5516062;25;19928;-69
2024/04/20 04:51:05;;;;;;;;;;;;;;;-1.83;100.00;100144.66;5498838;25;19976;-68
2024/04/20 04:53:31;;;;;;;;;;;;;;;-1.78;100.00;100149.56;5536936;25;20282;-69
2024/04/20 04:55:56;;;;;;;;;;;;;;;-1.71;100.00;100156.94;5556301;25;19938;-69
2024/04/20 04:58:22;;;;;;;;;;;;;;;-1.75;100.00;100165.88;5545193;25;19971;-70
2024/04/20 05:00:50;;;;;;;;;;;;;;;-1.75;100.00;100173.69;5547176;25;19931;-68
2024/04/20 05:03:15;;;;;;;;;;;;;;;-1.80;100.00;100181.00;5540815;25;20410;-67
2024/04/20 05:05:50;;;;;;;;;;;;;;;-1.81;100.00;100181.09;5494104;25;19995;-70
2024/04/20 05:08:16;;;;;;;;;;;;;;;-1.79;100.00;100193.09;5496466;25;19935;-69
2024/04/20 05:10:41;;;;;;;;;;;;;;;-1.73;100.00;100192.75;5528445;25;20291;-70
2024/04/20 05:13:06;;;;;;;;;;;;;;;-1.66;100.00;100201.84;5515612;25;19995;-69
2024/04/20 05:15:32;;;;;;;;;;;;;;;-1.54;100.00;100196.75;5555530;25;20502;-67
2024/04/20 05:17:59;;;;;;;;;;;;;;;-1.30;100.00;100203.00;5539390;25;19934;-67
2024/04/20 05:20:24;;;;;;;;;;;;;;;-1.06;100.00;100211.00;5496463;26;19951;-67
2024/04/20 05:22:50;;;;;;;;;;;;;;;-0.98;97.54;100216.53;5497280;26;19934;-67
2024/04/20 05:25:16;;;;;;;;;;;;;;;-0.93;97.59;100219.69;5539995;25;19927;-71
2024/04/20 05:27:41;;;;;;;;;;;;;;;-0.87;96.39;100215.81;5515871;25;19993;-70
2024/04/20 05:30:07;;;;;;;;;;;;;;;-0.75;95.33;100225.47;5560659;25;19931;-69
2024/04/20 05:32:32;;;;;;;;;;;;;;;-0.68;94.28;100237.19;5509482;25;19927;-70
2024/04/20 05:34:58;;;;;;;;;;;;;;;-0.86;94.30;100194.00;5547383;25;20501;-70
2024/04/20 05:37:23;;;;;;;;;;;;;;;-0.56;93.53;100235.53;5540869;25;19928;-68
2024/04/20 05:39:48;;;;;;;;;;;;;;;-0.60;92.88;100240.09;5540710;25;19938;-69
2024/04/20 05:42:14;;;;;;;;;;;;;;;-0.54;92.42;100247.56;5532002;25;19927;-71
2024/04/20 05:44:39;;;;;;;;;;;;;;;-0.50;92.34;100249.00;5521079;25;19955;-68
2024/04/20 05:47:05;;;;;;;;;;;;;;;-0.51;91.98;100247.34;5558610;25;19937;-71
2024/04/20 05:49:31;;;;;;;;;;;;;;;-0.48;92.04;100252.38;5554242;25;19927;-73
2024/04/20 05:51:57;;;;;;;;;;;;;;;-0.33;92.09;100260.94;5504456;26;19939;-68
2024/04/20 05:54:22;;;;;;;;;;;;;;;-0.13;91.64;100265.63;5559032;25;19927;-68
2024/04/20 05:56:48;;;;;;;;;;;;;;;-0.04;91.21;100266.75;5497415;26;19939;-70
2024/04/20 05:59:13;;;;;;;;;;;;;;;-0.05;90.14;100270.31;5536626;25;20767;-69
2024/04/20 06:01:39;;;;;;;;;;;;;;;-0.05;91.36;100275.56;5538636;25;19936;-68
2024/04/20 06:04:04;;;;;;;;;;;;;;;-0.06;89.90;100285.19;5545105;25;19946;-70
2024/04/20 06:06:30;;;;;;;;;;;;;;;-0.09;90.20;100287.19;5523371;25;19937;-71
2024/04/20 06:08:55;;;;;;;;;;;;;;;-0.05;89.83;100301.72;5509622;25;19995;-69
2024/04/20 06:11:20;;;;;;;;;;;;;;;0.10;89.67;100300.69;5534411;25;19939;-71
2024/04/20 06:13:46;;;;;;;;;;;;;;;0.17;88.70;100299.31;5531130;25;19927;-70
2024/04/20 06:16:11;;;;;;;;;;;;;;;0.16;89.50;100315.13;5534351;25;20306;-69
2024/04/20 06:18:36;;;;;;;;;;;;;;;0.04;89.45;100327.31;5520575;25;19931;-72
2024/04/20 06:21:02;;;;;;;;;;;;;;;-0.17;90.75;100334.00;5479546;26;20296;-72
2024/04/20 06:23:27;;;;;;;;;;;;;;;-0.55;92.19;100333.97;5548101;25;19927;-70
2024/04/20 06:25:52;;;;;;;;;;;;;;;-0.58;94.29;100342.84;5516954;25;19927;-72
2024/04/20 06:28:18;;;;;;;;;;;;;;;-0.59;94.48;100343.78;5515468;25;19935;-67
2024/04/20 06:30:45;;;;;;;;;;;;;;;-0.48;94.29;100346.53;5547177;25;19935;-68
2024/04/20 06:33:11;;;;;;;;;;;;;;;-0.34;93.34;100359.50;5508141;25;19926;-73
2024/04/20 06:35:39;;;;;;;;;;;;;;;-0.38;93.47;100363.28;5543784;25;20393;-75
2024/04/20 06:38:04;;;;;;;;;;;;;;;-0.38;93.72;100371.13;5545044;25;19994;-68
2024/04/20 06:40:30;;;;;;;;;;;;;;;-0.36;93.86;100371.88;5556451;25;19934;-74
2024/04/20 06:42:55;;;;;;;;;;;;;;;-0.33;92.81;100379.50;5557928;25;19935;-77
2024/04/20 06:45:21;;;;;;;;;;;;;;;-0.33;92.80;100379.50;5540698;25;19927;-67
2024/04/20 06:47:46;;;;;;;;;;;;;;;-0.42;93.27;100387.13;5509763;25;19934;-71
2024/04/20 06:50:16;;;;;;;;;;;;;;;-0.41;94.39;100389.66;5516987;25;19995;-70
2024/04/20 06:52:41;;;;;;;;;;;;;;;-0.52;93.81;100394.78;5556592;25;20382;-68
2024/04/20 06:55:06;;;;;;;;;;;;;;;-0.51;94.34;100398.22;5552582;25;19953;-68
2024/04/20 06:57:31;;;;;;;;;;;;;;;-0.51;94.47;100404.28;5514076;25;19927;-66
2024/04/20 06:59:58;;;;;;;;;;;;;;;-0.51;93.90;100412.13;5547061;25;19927;-70
2024/04/20 07:02:24;;;;;;;;;;;;;;;-0.60;93.97;100412.72;5554311;25;19927;-68
2024/04/20 07:04:51;;;;;;;;;;;;;;;-0.60;94.62;100419.72;5520337;25;19990;-68
2024/04/20 07:07:17;;;;;;;;;;;;;;;-0.58;94.26;100423.91;5539051;25;19934;-70
2024/04/20 07:09:42;;;;;;;;;;;;;;;-0.55;93.83;100426.34;5509758;25;20362;-69
2024/04/20 07:12:08;;;;;;;;;;;;;;;-0.49;92.39;100428.56;5513418;25;20282;-70
2024/04/20 07:14:34;;;;;;;;;;;;;;;-0.44;92.56;100446.56;5547790;25;19975;-67
2024/04/20 07:16:59;;;;;;;;;;;;;;;-0.36;93.13;100445.13;5549099;25;19927;-68
2024/04/20 07:19:25;;;;;;;;;;;;;;;-0.35;91.70;100457.28;5534703;25;20360;-68
2024/04/20 07:21:51;;;;;;;;;;;;;;;-0.22;91.01;100453.88;5504807;25;19949;-69
2024/04/20 07:24:16;;;;;;;;;;;;;;;-0.23;90.56;100457.41;5509383;25;19959;-71
2024/04/20 07:26:42;;;;;;;;;;;;;;;-0.16;90.83;100461.31;5497116;25;19934;-68
2024/04/20 07:29:07;;;;;;;;;;;;;;;-0.03;91.10;100462.16;5541515;25;19934;-68
2024/04/20 07:31:32;;;;;;;;;;;;;;;-0.05;90.76;100475.34;5547766;25;19935;-69
2024/04/20 07:33:58;;;;;;;;;;;;;;;-0.04;90.80;100476.19;5542380;25;19928;-67
2024/04/20 07:36:24;;;;;;;;;;;;;;;0.01;90.31;100481.97;5549428;25;19931;-66
2024/04/20 07:38:50;;;;;;;;;;;;;;;-0.02;89.76;100482.16;5549616;25;19934;-69
2024/04/20 07:41:15;;;;;;;;;;;;;;;0.01;90.69;100489.84;5538708;25;19939;-68
2024/04/20 07:43:40;;;;;;;;;;;;;;;0.08;91.07;100495.50;5543141;25;20384;-69
2024/04/20 07:46:06;;;;;;;;;;;;;;;0.18;90.71;100496.53;5544798;25;19935;-69
2024/04/20 07:48:33;;;;;;;;;;;;;;;0.23;89.08;100499.69;5533736;25;19927;-68
2024/04/20 07:50:58;;;;;;;;;;;;;;;0.29;89.71;100513.22;5534870;25;19939;-69
2024/04/20 07:53:24;;;;;;;;;;;;;;;0.23;89.34;100513.63;5504255;25;19926;-73
2024/04/20 07:55:49;;;;;;;;;;;;;;;0.22;89.69;100525.03;5547038;25;19955;-73
2024/04/20 07:58:14;;;;;;;;;;;;;;;0.24;90.08;100525.78;5537548;25;20390;-69
2024/04/20 08:00:40;;;;;;;;;;;;;;;0.29;90.21;100533.34;5540064;25;19963;-70
2024/04/20 08:03:05;;;;;;;;;;;;;;;0.22;89.98;100535.50;5539963;25;19928;-69
2024/04/20 08:05:31;;;;;;;;;;;;;;;0.10;90.24;100535.50;5489964;25;19946;-72
2024/04/20 08:07:56;;;;;;;;;;;;;;;0.06;90.86;100544.50;5536765;25;19938;-70
2024/04/20 08:10:21;;;;;;;;;;;;;;;0.08;91.27;100548.69;5534050;25;19928;-72
2024/04/20 08:12:47;;;;;;;;;;;;;;;0.06;91.03;100555.81;5535751;25;19935;-72
2024/04/20 08:15:12;;;;;;;;;;;;;;;-0.01;90.80;100563.22;5509191;25;19935;-68
2024/04/20 08:17:39;;;;;;;;;;;;;;;-0.02;91.67;100558.06;5541724;25;19972;-69
2024/04/20 08:20:05;;;;;;;;;;;;;;;0.03;91.40;100569.13;5536928;25;19934;-71
2024/04/20 08:22:30;;;;;;;;;;;;;;;-0.05;92.23;100566.97;5478825;25;19934;-70
2024/04/20 08:24:55;;;;;;;;;;;;;;;-0.11;92.91;100585.69;5507787;25;20389;-71
2024/04/20 08:27:21;;;;;;;;;;;;;;;-0.14;92.82;100585.91;5547308;25;19995;-66
2024/04/20 08:29:46;;;;;;;;;;;;;;;-0.21;93.51;100592.47;5531055;25;19927;-68
2024/04/20 08:32:11;;;;;;;;;;;;;;;-0.19;95.61;100600.22;5538000;25;19927;-66
2024/04/20 08:34:36;;;;;;;;;;;;;;;-0.15;96.49;100599.94;5545964;25;19946;-68
2024/04/20 08:37:02;;;;;;;;;;;;;;;-0.13;97.57;100610.28;5529247;25;19931;-65
2024/04/20 08:39:28;;;;;;;;;;;;;;;-0.22;98.71;100613.50;5546520;25;19939;-68
2024/04/20 08:42:03;;;;;;;;;;;;;;;-0.19;99.35;100618.53;5536599;25;19931;-72
2024/04/20 08:44:29;;;;;;;;;;;;;;;-0.21;98.40;100633.50;5531723;25;20407;-68
2024/04/20 08:46:54;;;;;;;;;;;;;;;-0.24;98.88;100628.47;5546345;25;19935;-69
2024/04/20 08:49:21;;;;;;;;;;;;;;;-0.19;98.78;100639.47;5548632;25;19927;-71
2024/04/20 08:51:47;;;;;;;;;;;;;;;-0.15;98.38;100641.81;5529288;25;19927;-70
2024/04/20 08:54:12;;;;;;;;;;;;;;;-0.02;98.60;100652.31;5544601;25;19927;-68
2024/04/20 08:56:40;;;;;;;;;;;;;;;-0.19;98.02;100615.94;5550003;25;19927;-69
2024/04/20 08:59:06;;;;;;;;;;;;;;;0.10;96.47;100661.19;5547552;25;19972;-68
2024/04/20 09:01:33;;;;;;;;;;;;;;;0.09;95.79;100665.59;5509307;26;19935;-70
2024/04/20 09:03:59;;;;;;;;;;;;;;;0.10;95.61;100677.75;5538862;25;19928;-70
2024/04/20 09:06:25;;;;;;;;;;;;;;;0.09;96.08;100690.94;5538415;25;19998;-70
2024/04/20 09:08:50;;;;;;;;;;;;;;;0.00;97.04;100692.38;5534521;25;19996;-69
2024/04/20 09:11:16;;;;;;;;;;;;;;;-0.17;98.26;100695.19;5536984;25;19927;-71
2024/04/20 09:13:41;;;;;;;;;;;;;;;-0.33;100.00;100706.59;5552453;25;19930;-71
2024/04/20 09:16:07;;;;;;;;;;;;;;;-0.35;100.00;100708.47;5539510;25;19931;-68
2024/04/20 09:18:32;;;;;;;;;;;;;;;-0.27;100.00;100715.03;5549905;25;19927;-70
2024/04/20 09:20:58;;;;;;;;;;;;;;;-0.21;100.00;100709.41;5550272;25;19937;-68
2024/04/20 09:23:23;;;;;;;;;;;;;;;-0.20;98.60;100716.31;5542854;25;19927;-71
2024/04/20 09:25:52;;;;;;;;;;;;;;;-0.20;96.60;100726.78;5488394;26;19928;-70
2024/04/20 09:28:19;;;;;;;;;;;;;;;-0.21;95.73;100725.94;5511665;26;19995;-70
2024/04/20 09:30:54;;;;;;;;;;;;;;;-0.25;94.68;100739.31;5502546;25;19933;-70
2024/04/20 09:33:20;;;;;;;;;;;;;;;-0.27;93.99;100738.59;5556752;25;20392;-69
2024/04/20 09:35:51;;;;;;;;;;;;;;;-0.15;93.84;100750.91;5549539;25;19935;-69
2024/04/20 09:38:36;;;;;;;;;;;;;;;-0.05;93.09;100749.38;5499170;25;20002;-70
2024/04/20 09:41:07;;;;;;;;;;;;;;;0.07;92.95;100760.91;5525923;25;19927;-69
2024/04/20 09:43:56;;;;;;;;;;;;;;;0.18;92.73;100761.88;5531128;25;19927;-70
2024/04/20 09:46:23;;;;;;;;;;;;;;;0.42;90.97;100779.63;5520347;25;19994;-72
2024/04/20 09:48:50;;;;;;;;;;;;;;;0.46;90.26;100768.84;5529597;25;20358;-71
2024/04/20 09:51:15;;;;;;;;;;;;;;;0.42;89.35;100784.88;5535050;25;19963;-70
2024/04/20 09:54:08;;;;;;;;;;;;;;;0.45;89.18;100792.53;5499721;25;19927;-69
2024/04/20 09:56:35;;;;;;;;;;;;;;;0.47;89.26;100801.13;5524561;25;19959;-69
2024/04/20 09:59:02;;;;;;;;;;;;;;;0.38;88.91;100806.97;5558878;25;20405;-70
2024/04/20 10:01:28;;;;;;;;;;;;;;;0.42;88.67;100808.44;5495521;25;19927;-69
2024/04/20 10:03:55;;;;;;;;;;;;;;;0.49;88.91;100809.72;5526319;25;19927;-69
2024/04/20 10:06:20;;;;;;;;;;;;;;;0.53;88.88;100816.47;5525866;25;19942;-71
2024/04/20 10:08:46;;;;;;;;;;;;;;;0.64;88.62;100824.50;5560165;25;20350;-69
2024/04/20 10:11:14;;;;;;;;;;;;;;;0.56;88.01;100829.38;5560876;25;19926;-72
2024/04/20 10:13:40;;;;;;;;;;;;;;;0.59;89.23;100831.81;5562772;25;20106;-71
2024/04/20 10:16:06;;;;;;;;;;;;;;;0.78;89.75;100842.78;5529432;25;19934;-71
2024/04/20 10:18:31;;;;;;;;;;;;;;;0.73;87.12;100839.63;5563545;25;19933;-68
2024/04/20 10:21:00;;;;;;;;;;;;;;;0.68;88.83;100854.81;5563267;25;19974;-69
2024/04/20 10:23:26;;;;;;;;;;;;;;;0.66;87.85;100848.00;5564145;25;19954;-71
2024/04/20 10:25:53;;;;;;;;;;;;;;;0.76;89.27;100859.56;5565280;25;20429;-72
2024/04/20 10:28:26;;;;;;;;;;;;;;;0.84;87.31;100860.75;5499752;25;19927;-72
2024/04/20 10:30:56;;;;;;;;;;;;;;;0.97;86.45;100868.69;5563639;25;19938;-71
2024/04/20 10:33:25;;;;;;;;;;;;;;;1.14;85.50;100865.78;5563341;25;20377;-70
2024/04/20 10:35:57;;;;;;;;;;;;;;;1.38;84.60;100873.84;5529134;25;19927;-70
2024/04/20 10:38:25;;;;;;;;;;;;;;;1.51;83.21;100873.91;5562447;25;19950;-72
2024/04/20 10:40:50;;;;;;;;;;;;;;;1.64;81.46;100879.16;5562970;25;19931;-71
2024/04/20 10:43:19;;;;;;;;;;;;;;;1.84;81.61;100887.38;5565523;25;20259;-73
2024/04/20 10:45:45;;;;;;;;;;;;;;;1.96;79.07;100896.22;5530392;25;19938;-70
2024/04/20 10:48:14;;;;;;;;;;;;;;;2.06;77.69;100897.28;5562960;25;20371;-67
2024/04/20 10:50:43;;;;;;;;;;;;;;;2.18;78.07;100901.69;5529667;25;19938;-71
2024/04/20 10:53:09;;;;;;;;;;;;;;;2.30;77.31;100907.03;5529763;25;20251;-73
2024/04/20 10:55:35;;;;;;;;;;;;;;;2.37;77.49;100911.78;5529637;25;19934;-70
2024/04/20 10:58:00;;;;;;;;;;;;;;;2.21;76.59;100926.91;5534355;25;19953;-70
2024/04/20 11:00:26;;;;;;;;;;;;;;;1.90;77.30;100932.56;5562271;25;19959;-69
2024/04/20 11:02:52;;;;;;;;;;;;;;;1.53;78.29;100925.34;5562593;25;19937;-69
2024/04/20 11:05:17;;;;;;;;;;;;;;;1.35;78.15;100934.41;5529069;25;19934;-68
2024/04/20 11:07:42;;;;;;;;;;;;;;;1.29;79.14;100942.69;5562570;25;19927;-70
2024/04/20 11:10:14;;;;;;;;;;;;;;;1.31;79.54;100940.81;5562589;25;20371;-69
2024/04/20 11:12:40;;;;;;;;;;;;;;;1.09;78.41;100943.09;5531504;25;19933;-67
2024/04/20 11:15:05;;;;;;;;;;;;;;;0.86;78.64;100953.25;5562949;25;19926;-68
2024/04/20 11:17:33;;;;;;;;;;;;;;;0.87;80.11;100962.84;5562152;25;19926;-70
2024/04/20 11:19:59;;;;;;;;;;;;;;;0.89;78.11;100965.38;5562427;25;19927;-68
2024/04/20 11:22:25;;;;;;;;;;;;;;;0.96;78.09;100963.19;5499305;25;19938;-71
2024/04/20 11:24:51;;;;;;;;;;;;;;;1.14;79.31;100975.97;5562152;25;19927;-71
2024/04/20 11:27:16;;;;;;;;;;;;;;;1.30;76.92;100983.72;5528523;25;19935;-67
2024/04/20 11:29:42;;;;;;;;;;;;;;;1.32;76.84;100988.88;5566849;25;19927;-72
2024/04/20 11:32:07;;;;;;;;;;;;;;;1.20;75.61;100985.25;5561759;25;19999;-69
2024/04/20 11:34:32;;;;;;;;;;;;;;;1.17;76.39;100995.94;5561681;25;19927;-69
2024/04/20 11:36:58;;;;;;;;;;;;;;;1.04;76.07;100995.84;5561632;25;20041;-70
2024/04/20 11:39:25;;;;;;;;;;;;;;;1.03;75.97;101006.44;5561663;25;20414;-71
2024/04/20 11:41:51;;;;;;;;;;;;;;;1.05;77.22;101001.94;5561644;25;19994;-69
2024/04/20 11:44:18;;;;;;;;;;;;;;;1.13;75.05;101018.03;5563922;25;19938;-70
2024/04/20 11:46:47;;;;;;;;;;;;;;;1.06;76.21;101014.13;5563686;25;19997;-70
2024/04/20 11:49:14;;;;;;;;;;;;;;;1.16;76.20;101025.75;5529408;25;20464;-69
2024/04/20 11:54:26;;;;;;;;;;;;;;;1.28;75.71;101040.69;5561038;25;19934;-71
2024/04/20 11:56:54;;;;;;;;;;;;;;;1.29;76.02;101047.63;5561522;25;19934;-71
2024/04/20 11:59:27;;;;;;;;;;;;;;;1.36;76.58;101041.06;5529335;25;19931;-71
2024/04/20 12:01:53;;;;;;;;;;;;;;;1.48;75.01;101057.84;5564997;25;19927;-69
2024/04/20 12:04:18;;;;;;;;;;;;;;;1.47;74.35;101066.66;5561380;25;19934;-71
2024/04/20 12:06:44;;;;;;;;;;;;;;;1.34;74.91;101061.31;5561403;25;19931;-70
2024/04/20 12:09:09;;;;;;;;;;;;;;;1.30;75.72;101069.47;5528882;25;19934;-68
2024/04/20 12:11:35;;;;;;;;;;;;;;;1.33;76.10;101070.13;5561699;25;20414;-68
2024/04/20 12:14:00;;;;;;;;;;;;;;;1.35;75.23;101077.88;5561360;25;19990;-68
2024/04/20 12:16:26;;;;;;;;;;;;;;;1.35;74.91;101091.00;5564411;25;19934;-67
2024/04/20 12:18:52;;;;;;;;;;;;;;;1.36;75.61;101088.28;5530146;25;20050;-70
2024/04/20 12:21:18;;;;;;;;;;;;;;;1.29;75.30;101092.25;5561484;25;19933;-67
2024/04/20 12:23:44;;;;;;;;;;;;;;;1.30;76.73;101101.78;5560635;25;20512;-70
2024/04/20 12:26:09;;;;;;;;;;;;;;;1.37;76.30;101097.84;5542093;25;19928;-70
2024/04/20 12:28:35;;;;;;;;;;;;;;;1.59;76.63;101112.25;5545597;25;19927;-72
2024/04/20 12:31:02;;;;;;;;;;;;;;;1.99;76.45;101114.03;5490340;26;19991;-71
2024/04/20 12:33:28;;;;;;;;;;;;;;;2.25;74.77;101114.97;5503998;25;19967;-71
2024/04/20 12:35:54;;;;;;;;;;;;;;;2.72;72.92;101116.22;5528715;25;20387;-72